createdAt,value
2022-08-22T00:02:10.568Z,22.50
2022-08-22T00:02:45.174Z,24.60
2022-08-22T00:03:03.864Z,23.50
2022-08-22T00:04:47.645Z,22.50
2022-08-22T00:07:27.519Z,22.50
2022-08-22T00:10:03.159Z,22.50
2022-08-22T00:12:38.095Z,22.40
2022-08-22T00:15:31.695Z,22.30
2022-08-22T00:18:08.359Z,22.30
2022-08-22T00:20:43.690Z,22.30
2022-08-22T00:23:17.752Z,22.30
2022-08-22T00:25:52.912Z,22.30
2022-08-22T00:28:25.951Z,22.30
2022-08-22T00:30:59.005Z,22.30
2022-08-22T00:33:40.404Z,22.20
2022-08-22T00:36:20.331Z,22.30
2022-08-22T00:38:53.228Z,22.20
2022-08-22T00:41:35.023Z,22.20
2022-08-22T00:44:26.920Z,22.10
2022-08-22T00:47:06.800Z,22.00
2022-08-22T00:49:51.620Z,22.00
2022-08-22T00:52:47.650Z,22.00
2022-08-22T00:55:34.885Z,21.90
2022-08-22T00:58:26.422Z,21.90
2022-08-22T01:00:56.810Z,21.90
2022-08-22T01:03:53.241Z,21.80
2022-08-22T01:06:33.193Z,21.80
2022-08-22T01:09:11.620Z,21.80
2022-08-22T01:11:59.750Z,21.80
2022-08-22T01:14:40.227Z,21.80
2022-08-22T01:17:37.706Z,21.80
2022-08-22T01:20:42.120Z,21.70
2022-08-22T01:23:44.921Z,21.70
2022-08-22T01:26:41.757Z,21.70
2022-08-22T01:29:45.082Z,21.70
2022-08-22T01:32:47.391Z,21.70
2022-08-22T01:36:00.415Z,21.60
2022-08-22T01:38:55.132Z,21.60
2022-08-22T01:42:15.365Z,21.60
2022-08-22T01:45:15.358Z,21.60
2022-08-22T01:47:54.183Z,21.60
2022-08-22T01:50:26.244Z,21.60
2022-08-22T01:53:06.848Z,21.50
2022-08-22T01:55:39.833Z,21.50
2022-08-22T01:58:17.631Z,21.50
2022-08-22T02:01:02.882Z,21.40
2022-08-22T02:03:36.283Z,21.30
2022-08-22T02:06:09.567Z,21.30
2022-08-22T02:08:51.867Z,21.30
2022-08-22T02:11:47.840Z,21.20
2022-08-22T02:14:27.629Z,21.20
2022-08-22T02:16:59.867Z,21.20
2022-08-22T02:19:37.905Z,21.10
2022-08-22T02:22:17.931Z,21.10
2022-08-22T02:25:04.348Z,21.10
2022-08-22T02:27:47.553Z,21.00
2022-08-22T02:30:18.053Z,21.00
2022-08-22T02:33:04.106Z,21.00
2022-08-22T02:35:37.981Z,21.00
2022-08-22T02:38:26.238Z,21.00
2022-08-22T02:41:07.477Z,21.00
2022-08-22T02:43:43.583Z,21.00
2022-08-22T02:46:24.055Z,21.10
2022-08-22T02:49:04.080Z,21.10
2022-08-22T02:51:37.760Z,21.10
2022-08-22T02:54:17.107Z,21.00
2022-08-22T02:56:53.427Z,21.00
2022-08-22T02:59:31.919Z,21.00
2022-08-22T03:02:34.932Z,21.00
2022-08-22T03:05:16.729Z,21.00
2022-08-22T03:07:50.071Z,20.90
2022-08-22T03:10:23.851Z,20.90
2022-08-22T03:13:07.702Z,20.80
2022-08-22T03:15:48.470Z,20.80
2022-08-22T03:18:25.811Z,20.80
2022-08-22T03:20:59.882Z,20.80
2022-08-22T03:23:41.106Z,20.80
2022-08-22T03:26:16.895Z,20.80
2022-08-22T03:28:54.407Z,20.80
2022-08-22T03:31:29.531Z,20.80
2022-08-22T03:34:32.248Z,20.80
2022-08-22T03:37:07.079Z,20.70
2022-08-22T03:39:54.634Z,20.70
2022-08-22T03:42:46.034Z,20.70
2022-08-22T03:45:38.691Z,20.70
2022-08-22T03:48:38.563Z,20.70
2022-08-22T03:51:23.299Z,20.70
2022-08-22T03:54:16.246Z,20.60
2022-08-22T03:57:20.118Z,20.70
2022-08-22T04:00:14.844Z,20.60
2022-08-22T04:03:13.918Z,20.60
2022-08-22T04:05:56.771Z,20.60
2022-08-22T04:08:55.326Z,20.70
2022-08-22T04:11:59.541Z,20.70
2022-08-22T04:15:04.278Z,20.70
2022-08-22T04:17:50.694Z,20.70
2022-08-22T04:20:37.692Z,20.70
2022-08-22T04:23:28.435Z,20.80
2022-08-22T04:26:01.870Z,20.80
2022-08-22T04:28:44.671Z,20.80
2022-08-22T04:31:14.041Z,20.80
2022-08-22T04:33:47.378Z,20.70
2022-08-22T04:36:20.855Z,20.70
2022-08-22T04:38:54.211Z,20.70
2022-08-22T04:41:38.381Z,20.70
2022-08-22T04:44:13.467Z,20.70
2022-08-22T04:46:46.527Z,20.70
2022-08-22T04:49:24.424Z,20.70
2022-08-22T04:51:58.692Z,20.70
2022-08-22T04:54:49.582Z,20.70
2022-08-22T04:57:28.284Z,20.70
2022-08-22T05:00:00.389Z,20.70
2022-08-22T05:02:29.332Z,20.70
2022-08-22T05:05:04.087Z,20.70
2022-08-22T05:07:36.402Z,20.70
2022-08-22T05:10:12.021Z,20.70
2022-08-22T05:12:47.008Z,20.80
2022-08-22T05:15:23.055Z,20.80
2022-08-22T05:17:54.653Z,20.80
2022-08-22T05:20:26.926Z,20.80
2022-08-22T05:23:00.215Z,20.80
2022-08-22T05:25:31.376Z,20.80
2022-08-22T05:28:10.587Z,20.80
2022-08-22T05:30:40.283Z,20.90
2022-08-22T05:33:19.269Z,20.90
2022-08-22T05:35:54.557Z,21.00
2022-08-22T05:38:31.613Z,21.00
2022-08-22T05:41:03.545Z,21.00
2022-08-22T05:43:40.571Z,21.10
2022-08-22T05:46:15.952Z,21.10
2022-08-22T05:48:50.365Z,21.10
2022-08-22T05:51:25.195Z,21.10
2022-08-22T05:54:12.351Z,21.10
2022-08-22T05:56:45.512Z,21.10
2022-08-22T05:59:33.584Z,21.10
2022-08-22T06:02:14.960Z,21.20
2022-08-22T06:04:51.763Z,21.20
2022-08-22T06:07:26.825Z,21.20
2022-08-22T06:10:08.311Z,21.30
2022-08-22T06:12:51.178Z,21.30
2022-08-22T06:15:33.884Z,21.40
2022-08-22T06:18:06.019Z,21.40
2022-08-22T06:20:40.631Z,21.30
2022-08-22T06:23:12.439Z,21.30
2022-08-22T06:25:44.401Z,21.30
2022-08-22T06:28:17.165Z,21.20
2022-08-22T06:30:48.411Z,21.30
2022-08-22T06:33:21.923Z,21.40
2022-08-22T06:36:11.337Z,21.40
2022-08-22T06:38:55.067Z,21.40
2022-08-22T06:41:27.125Z,21.40
2022-08-22T06:43:56.604Z,21.40
2022-08-22T06:46:30.840Z,21.40
2022-08-22T06:49:00.954Z,21.30
2022-08-22T06:51:30.461Z,21.20
2022-08-22T06:54:01.941Z,21.20
2022-08-22T06:56:34.816Z,21.10
2022-08-22T06:59:08.539Z,21.00
2022-08-22T07:01:48.968Z,21.00
2022-08-22T07:04:17.976Z,20.90
2022-08-22T07:06:50.834Z,20.90
2022-08-22T07:09:24.817Z,20.90
2022-08-22T07:11:54.496Z,21.00
2022-08-22T07:14:29.615Z,21.00
2022-08-22T07:17:00.986Z,21.00
2022-08-22T07:19:33.035Z,21.10
2022-08-22T07:22:13.407Z,21.10
2022-08-22T07:24:47.432Z,21.30
2022-08-22T07:27:27.174Z,21.40
2022-08-22T07:30:02.913Z,21.50
2022-08-22T07:32:43.007Z,21.60
2022-08-22T07:35:15.690Z,21.70
2022-08-22T07:38:05.606Z,21.80
2022-08-22T07:40:39.394Z,21.90
2022-08-22T07:43:21.095Z,22.00
2022-08-22T07:45:54.172Z,22.10
2022-08-22T07:48:28.763Z,22.20
2022-08-22T07:51:03.605Z,22.40
2022-08-22T07:53:39.563Z,22.50
2022-08-22T07:56:10.715Z,22.60
2022-08-22T07:58:42.025Z,22.80
2022-08-22T08:01:12.419Z,22.90
2022-08-22T08:03:42.088Z,22.90
2022-08-22T08:06:10.800Z,23.10
2022-08-22T08:08:42.571Z,23.20
2022-08-22T08:11:14.366Z,23.30
2022-08-22T08:13:45.922Z,23.40
2022-08-22T08:16:20.456Z,23.50
2022-08-22T08:18:52.075Z,23.60
2022-08-22T08:21:30.878Z,23.70
2022-08-22T08:24:01.326Z,23.80
2022-08-22T08:26:34.189Z,23.90
2022-08-22T08:29:03.141Z,23.90
2022-08-22T08:31:35.405Z,24.00
2022-08-22T08:34:09.672Z,24.00
2022-08-22T08:36:48.187Z,24.10
2022-08-22T08:39:25.070Z,24.10
2022-08-22T08:42:33.686Z,24.10
2022-08-22T08:45:15.830Z,24.20
2022-08-22T08:47:57.304Z,24.20
2022-08-22T08:50:40.063Z,24.30
2022-08-22T08:53:38.559Z,24.40
2022-08-22T08:56:20.131Z,24.50
2022-08-22T08:58:54.790Z,24.50
2022-08-22T09:01:53.235Z,24.60
2022-08-22T09:05:12.557Z,24.70
2022-08-22T09:08:05.820Z,24.90
2022-08-22T09:11:09.919Z,25.00
2022-08-22T09:13:57.412Z,25.10
2022-08-22T09:16:45.571Z,25.20
2022-08-22T09:19:50.064Z,25.40
2022-08-22T09:22:57.995Z,25.60
2022-08-22T09:25:39.197Z,25.80
2022-08-22T09:28:15.292Z,26.00
2022-08-22T09:31:21.828Z,26.20
2022-08-22T09:34:07.842Z,26.40
2022-08-22T09:36:48.191Z,26.40
2022-08-22T09:39:24.480Z,26.60
2022-08-22T09:41:58.860Z,26.60
2022-08-22T09:44:52.960Z,26.70
2022-08-22T09:47:28.095Z,26.80
2022-08-22T09:50:12.278Z,26.80
2022-08-22T09:52:57.059Z,26.90
2022-08-22T09:55:41.579Z,27.10
2022-08-22T09:58:21.359Z,27.20
2022-08-22T10:00:56.224Z,27.30
2022-08-22T10:03:34.011Z,27.40
2022-08-22T10:06:05.746Z,27.50
2022-08-22T10:08:48.154Z,27.50
2022-08-22T10:11:24.473Z,27.60
2022-08-22T10:14:04.496Z,27.70
2022-08-22T10:17:00.116Z,27.60
2022-08-22T10:19:34.069Z,27.60
2022-08-22T10:22:36.991Z,27.60
2022-08-22T10:25:25.693Z,27.80
2022-08-22T10:28:11.912Z,27.90
2022-08-22T10:30:50.107Z,28.00
2022-08-22T10:33:29.154Z,28.20
2022-08-22T10:36:05.005Z,28.40
2022-08-22T10:38:46.411Z,28.50
2022-08-22T10:41:26.895Z,28.80
2022-08-22T10:44:04.224Z,29.20
2022-08-22T10:46:38.070Z,29.60
2022-08-22T10:49:14.334Z,29.80
2022-08-22T10:51:50.768Z,30.10
2022-08-22T10:54:30.949Z,30.40
2022-08-22T10:57:10.842Z,30.50
2022-08-22T10:59:45.823Z,30.70
2022-08-22T11:02:44.722Z,30.90
2022-08-22T11:05:25.784Z,31.10
2022-08-22T11:08:11.877Z,31.20
2022-08-22T11:10:56.105Z,30.90
2022-08-22T11:13:31.751Z,31.00
2022-08-22T11:16:09.535Z,31.00
2022-08-22T11:19:02.012Z,31.20
2022-08-22T11:21:45.833Z,31.30
2022-08-22T11:24:55.905Z,31.30
2022-08-22T11:27:37.863Z,31.30
2022-08-22T11:30:11.323Z,31.10
2022-08-22T11:33:16.048Z,31.00
2022-08-22T11:35:51.763Z,30.90
2022-08-22T11:38:32.446Z,30.90
2022-08-22T11:41:05.441Z,30.90
2022-08-22T11:43:43.440Z,30.90
2022-08-22T11:46:22.173Z,30.70
2022-08-22T11:49:17.029Z,30.80
2022-08-22T11:52:13.224Z,30.90
2022-08-22T11:55:03.824Z,31.00
2022-08-22T11:57:38.697Z,31.10
2022-08-22T12:00:24.990Z,31.20
2022-08-22T12:03:23.389Z,31.40
2022-08-22T12:05:57.973Z,31.40
2022-08-22T12:09:02.420Z,31.20
2022-08-22T12:11:41.324Z,31.10
2022-08-22T12:14:26.887Z,31.00
2022-08-22T12:17:08.856Z,31.10
2022-08-22T12:22:40.486Z,31.30
2022-08-22T12:25:26.998Z,31.40
2022-08-22T12:28:08.487Z,31.60
2022-08-22T12:30:42.894Z,31.60
2022-08-22T12:33:29.897Z,31.80
2022-08-22T12:36:26.214Z,31.90
2022-08-22T12:39:27.454Z,32.10
2022-08-22T12:42:26.910Z,32.10
2022-08-22T12:45:12.070Z,31.80
2022-08-22T12:47:49.356Z,31.70
2022-08-22T12:50:31.396Z,31.80
2022-08-22T12:53:36.551Z,31.80
2022-08-22T12:56:17.634Z,31.80
2022-08-22T12:59:11.074Z,31.70
2022-08-22T13:01:44.741Z,31.80
2022-08-22T13:04:29.681Z,32.00
2022-08-22T13:07:18.267Z,32.00
2022-08-22T13:09:52.423Z,31.70
2022-08-22T13:12:28.130Z,31.40
2022-08-22T13:15:01.849Z,31.30
2022-08-22T13:17:31.261Z,31.20
2022-08-22T13:20:12.350Z,31.00
2022-08-22T13:22:45.579Z,30.80
2022-08-22T13:25:26.136Z,30.70
2022-08-22T13:27:59.341Z,30.60
2022-08-22T13:30:31.576Z,30.50
2022-08-22T13:33:08.603Z,30.40
2022-08-22T13:35:45.646Z,30.40
2022-08-22T13:38:26.183Z,30.30
2022-08-22T13:40:56.797Z,30.10
2022-08-22T13:43:29.756Z,30.00
2022-08-22T13:46:02.119Z,29.90
2022-08-22T13:48:46.824Z,29.90
2022-08-22T13:51:21.835Z,29.90
2022-08-22T13:54:00.737Z,29.90
2022-08-22T13:56:47.166Z,29.80
2022-08-22T13:59:49.462Z,29.90
2022-08-22T14:02:30.907Z,29.90
2022-08-22T14:05:05.396Z,29.90
2022-08-22T14:07:39.076Z,29.90
2022-08-22T14:10:14.647Z,30.00
2022-08-22T14:13:05.114Z,30.00
2022-08-22T14:15:45.434Z,30.20
2022-08-22T14:18:30.318Z,30.20
2022-08-22T14:21:33.531Z,30.50
2022-08-22T14:24:25.893Z,30.90
2022-08-22T14:26:59.297Z,31.00
2022-08-22T14:29:50.218Z,31.20
2022-08-22T14:32:38.334Z,31.20
2022-08-22T14:35:29.187Z,31.20
2022-08-22T14:38:27.380Z,31.20
2022-08-22T14:41:03.276Z,31.20
2022-08-22T14:43:51.416Z,31.10
2022-08-22T14:46:27.804Z,30.90
2022-08-22T14:49:29.465Z,30.90
2022-08-22T14:52:04.749Z,30.70
2022-08-22T14:54:40.253Z,30.50
2022-08-22T14:57:20.089Z,30.60
2022-08-22T14:59:51.777Z,30.70
2022-08-22T15:02:28.765Z,30.70
2022-08-22T15:05:01.968Z,30.80
2022-08-22T15:07:36.395Z,30.90
2022-08-22T15:10:20.714Z,31.10
2022-08-22T15:12:53.814Z,31.10
2022-08-22T15:15:49.575Z,31.10
2022-08-22T15:18:36.486Z,31.10
2022-08-22T15:21:12.345Z,31.10
2022-08-22T15:23:46.939Z,31.10
2022-08-22T15:26:23.977Z,31.00
2022-08-22T15:28:59.170Z,31.00
2022-08-22T15:31:27.241Z,30.90
2022-08-22T15:34:08.627Z,30.80
2022-08-22T15:37:22.554Z,30.70
2022-08-22T15:40:11.962Z,30.60
2022-08-22T15:42:43.400Z,30.60
2022-08-22T15:45:21.609Z,30.60
2022-08-22T15:47:54.209Z,30.60
2022-08-22T15:50:38.684Z,30.60
2022-08-22T15:53:15.898Z,30.50
2022-08-22T15:56:29.009Z,30.50
2022-08-22T15:59:27.364Z,30.40
2022-08-22T16:02:00.429Z,30.20
2022-08-22T16:04:42.433Z,30.10
2022-08-22T16:07:35.276Z,30.00
2022-08-22T16:10:11.026Z,29.80
2022-08-22T16:12:42.246Z,29.70
2022-08-22T16:15:57.416Z,29.60
2022-08-22T16:19:11.069Z,29.50
2022-08-22T16:22:11.196Z,29.50
2022-08-22T16:25:03.774Z,29.40
2022-08-22T16:27:34.484Z,29.40
2022-08-22T16:30:15.220Z,29.30
2022-08-22T16:32:56.270Z,29.20
2022-08-22T16:36:01.458Z,29.10
2022-08-22T16:38:37.653Z,29.00
2022-08-22T16:41:06.090Z,29.00
2022-08-22T16:43:35.570Z,28.90
2022-08-22T16:46:33.226Z,28.80
2022-08-22T16:49:05.193Z,28.70
2022-08-22T16:51:35.501Z,28.70
2022-08-22T16:54:10.279Z,28.60
2022-08-22T16:56:56.864Z,28.60
2022-08-22T16:59:57.572Z,28.50
2022-08-22T17:02:47.784Z,28.50
2022-08-22T17:05:32.345Z,28.50
2022-08-22T17:08:26.776Z,28.40
2022-08-22T17:11:04.815Z,28.40
2022-08-22T17:13:55.526Z,28.30
2022-08-22T17:16:36.789Z,28.30
2022-08-22T17:19:20.845Z,28.20
2022-08-22T17:21:55.225Z,28.20
2022-08-22T17:24:37.414Z,28.10
2022-08-22T17:27:15.250Z,28.10
2022-08-22T17:29:55.083Z,28.00
2022-08-22T17:32:33.548Z,28.00
2022-08-22T17:35:14.669Z,28.00
2022-08-22T17:37:51.455Z,28.00
2022-08-22T17:40:37.916Z,27.90
2022-08-22T17:43:28.107Z,27.70
2022-08-22T17:46:27.362Z,27.60
2022-08-22T17:49:03.255Z,27.50
2022-08-22T17:51:38.911Z,27.40
2022-08-22T17:54:20.842Z,27.40
2022-08-22T17:57:29.494Z,27.30
2022-08-22T18:00:07.967Z,27.20
2022-08-22T18:02:55.506Z,27.10
2022-08-22T18:05:30.989Z,27.00
2022-08-22T18:08:06.514Z,26.90
2022-08-22T18:10:42.597Z,26.80
2022-08-22T18:13:14.446Z,26.80
2022-08-22T18:15:50.144Z,26.80
2022-08-22T18:18:30.272Z,26.70
2022-08-22T18:21:06.113Z,26.60
2022-08-22T18:23:40.212Z,26.60
2022-08-22T18:26:21.404Z,26.50
2022-08-22T18:28:58.091Z,26.40
2022-08-22T18:31:38.713Z,26.40
2022-08-22T18:34:16.788Z,26.40
2022-08-22T18:36:54.910Z,26.30
2022-08-22T18:39:27.334Z,26.20
2022-08-22T18:42:05.320Z,26.20
2022-08-22T18:44:37.452Z,26.10
2022-08-22T18:47:15.344Z,26.10
2022-08-22T18:49:48.432Z,26.10
2022-08-22T18:52:37.043Z,26.10
2022-08-22T18:55:28.208Z,26.10
2022-08-22T18:58:34.132Z,26.10
2022-08-22T19:01:32.032Z,26.10
2022-08-22T19:04:25.262Z,26.10
2022-08-22T19:07:23.247Z,26.00
2022-08-22T19:10:20.524Z,26.00
2022-08-22T19:13:17.189Z,26.00
2022-08-22T19:15:57.277Z,25.90
2022-08-22T19:18:36.251Z,25.80
2022-08-22T19:21:41.645Z,25.80
2022-08-22T19:24:13.696Z,25.70
2022-08-22T19:26:47.679Z,25.70
2022-08-22T19:29:58.317Z,25.70
2022-08-22T19:33:02.070Z,25.70
2022-08-22T19:35:40.109Z,25.60
2022-08-22T19:38:10.391Z,25.60
2022-08-22T19:40:58.260Z,25.50
2022-08-22T19:43:35.509Z,25.50
2022-08-22T19:46:07.100Z,25.50
2022-08-22T19:48:45.057Z,25.50
2022-08-22T19:51:24.831Z,25.50
2022-08-22T19:54:07.626Z,25.50
2022-08-22T19:56:51.143Z,25.60
2022-08-22T19:59:32.375Z,25.60
2022-08-22T20:02:17.725Z,25.60
2022-08-22T20:05:04.805Z,25.60
2022-08-22T20:07:49.475Z,25.60
2022-08-22T20:10:26.361Z,25.60
2022-08-22T20:13:05.506Z,25.60
2022-08-22T20:16:17.614Z,25.60
2022-08-22T20:19:20.437Z,25.60
2022-08-22T20:21:57.937Z,25.50
2022-08-22T20:24:36.491Z,25.50
2022-08-22T20:27:14.803Z,25.50
2022-08-22T20:29:49.582Z,25.40
2022-08-22T20:32:23.027Z,25.40
2022-08-22T20:34:56.946Z,25.40
2022-08-22T20:37:45.477Z,25.40
2022-08-22T20:40:54.590Z,25.40
2022-08-22T20:43:20.335Z,25.40
2022-08-22T20:45:59.133Z,25.40
2022-08-22T20:48:37.348Z,25.40
2022-08-22T20:51:06.796Z,25.40
2022-08-22T20:53:36.451Z,25.40
2022-08-22T20:56:07.142Z,25.40
2022-08-22T20:58:38.725Z,25.40
2022-08-22T21:01:08.346Z,25.40
2022-08-22T21:03:42.513Z,25.40
2022-08-22T21:06:13.161Z,25.40
2022-08-22T21:08:42.575Z,25.40
2022-08-22T21:11:34.678Z,25.40
2022-08-22T21:14:19.279Z,25.40
2022-08-22T21:16:47.264Z,25.30
2022-08-22T21:19:20.417Z,25.30
2022-08-22T21:21:48.673Z,25.30
2022-08-22T21:24:16.863Z,25.30
2022-08-22T21:26:49.794Z,25.20
2022-08-22T21:29:23.413Z,25.30
2022-08-22T21:31:54.214Z,25.20
2022-08-22T21:34:31.702Z,25.20
2022-08-22T21:37:02.967Z,25.20
2022-08-22T21:39:35.281Z,25.20
2022-08-22T21:42:11.831Z,25.20
2022-08-22T21:44:41.616Z,25.20
2022-08-22T21:47:31.823Z,25.20
2022-08-22T21:50:07.385Z,25.20
2022-08-22T21:52:38.387Z,25.20
2022-08-22T21:55:17.975Z,25.20
2022-08-22T21:57:45.957Z,25.20
2022-08-22T22:00:49.680Z,25.10
2022-08-22T22:03:20.840Z,25.10
2022-08-22T22:05:52.753Z,25.10
2022-08-22T22:08:20.718Z,25.00
2022-08-22T22:10:50.590Z,25.00
2022-08-22T22:13:20.023Z,24.90
2022-08-22T22:15:53.524Z,24.90
2022-08-22T22:18:24.386Z,24.90
2022-08-22T22:20:55.473Z,24.80
2022-08-22T22:23:24.206Z,24.80
2022-08-22T22:25:53.405Z,24.80
2022-08-22T22:28:24.955Z,24.70
2022-08-22T22:30:54.024Z,24.70
2022-08-22T22:33:25.448Z,24.70
2022-08-22T22:35:57.108Z,24.60
2022-08-22T22:38:25.504Z,24.50
2022-08-22T22:40:53.903Z,24.50
2022-08-22T22:43:22.115Z,24.40
2022-08-22T22:45:50.211Z,24.40
2022-08-22T22:48:23.830Z,24.40
2022-08-22T22:50:54.945Z,24.30
2022-08-22T22:53:33.669Z,24.20
2022-08-22T22:56:07.731Z,24.20
2022-08-22T22:58:38.183Z,24.20
2022-08-22T23:01:08.968Z,24.20
2022-08-22T23:03:37.014Z,24.20
2022-08-22T23:06:10.712Z,24.10
2022-08-22T23:08:38.644Z,24.10
2022-08-22T23:11:11.175Z,24.00
2022-08-22T23:13:39.708Z,24.00
2022-08-22T23:16:10.844Z,23.90
2022-08-22T23:18:38.881Z,23.90
2022-08-22T23:21:16.434Z,23.90
2022-08-22T23:23:44.633Z,23.90
2022-08-22T23:26:13.931Z,23.80
2022-08-22T23:28:42.188Z,23.90
2022-08-22T23:31:12.160Z,23.90
2022-08-22T23:33:40.192Z,23.90
2022-08-22T23:36:15.219Z,23.90
2022-08-22T23:38:43.319Z,23.90
2022-08-22T23:41:12.819Z,23.90
2022-08-22T23:43:43.991Z,23.90
2022-08-22T23:46:11.989Z,23.80
2022-08-22T23:48:39.906Z,23.80
2022-08-22T23:51:08.474Z,23.80
2022-08-22T23:53:38.596Z,23.70
2022-08-22T23:56:19.822Z,23.70
2022-08-22T23:58:49.176Z,23.70
